sensor_id;sensor_type;location;lat;lon;timestamp;P1;durP1;ratioP1;P2;durP2;ratioP2
58468;SDS011;44257;44.804;10.220;2023-02-01T00:01:44;12.50;;;4.40;;
58468;SDS011;44257;44.804;10.220;2023-02-01T00:04:10;9.38;;;4.18;;
58468;SDS011;44257;44.804;10.220;2023-02-01T00:06:36;8.30;;;3.85;;
58468;SDS011;44257;44.804;10.220;2023-02-01T00:09:02;10.27;;;3.25;;
58468;SDS011;44257;44.804;10.220;2023-02-01T00:11:28;8.20;;;4.60;;
58468;SDS011;44257;44.804;10.220;2023-02-01T00:13:53;8.15;;;3.47;;
58468;SDS011;44257;44.804;10.220;2023-02-01T00:16:20;9.80;;;4.60;;
58468;SDS011;44257;44.804;10.220;2023-02-01T00:18:51;12.77;;;4.53;;
58468;SDS011;44257;44.804;10.220;2023-02-01T00:21:21;12.90;;;4.78;;
58468;SDS011;44257;44.804;10.220;2023-02-01T00:23:47;11.38;;;5.10;;
58468;SDS011;44257;44.804;10.220;2023-02-01T00:26:14;8.15;;;4.28;;
58468;SDS011;44257;44.804;10.220;2023-02-01T00:28:44;7.80;;;4.78;;
58468;SDS011;44257;44.804;10.220;2023-02-01T00:31:11;8.73;;;4.75;;
58468;SDS011;44257;44.804;10.220;2023-02-01T00:33:37;10.77;;;4.57;;
58468;SDS011;44257;44.804;10.220;2023-02-01T00:36:03;7.38;;;4.07;;
58468;SDS011;44257;44.804;10.220;2023-02-01T00:38:31;11.95;;;5.28;;
58468;SDS011;44257;44.804;10.220;2023-02-01T00:41:02;7.88;;;3.47;;
58468;SDS011;44257;44.804;10.220;2023-02-01T00:43:31;4.82;;;2.80;;
58468;SDS011;44257;44.804;10.220;2023-02-01T00:45:57;10.13;;;4.07;;
58468;SDS011;44257;44.804;10.220;2023-02-01T00:48:23;11.98;;;4.68;;
58468;SDS011;44257;44.804;10.220;2023-02-01T00:50:49;10.35;;;5.18;;
58468;SDS011;44257;44.804;10.220;2023-02-01T00:53:15;8.82;;;3.92;;
58468;SDS011;44257;44.804;10.220;2023-02-01T00:55:44;13.20;;;6.78;;
58468;SDS011;44257;44.804;10.220;2023-02-01T00:58:13;11.65;;;4.65;;
58468;SDS011;44257;44.804;10.220;2023-02-01T01:00:39;11.82;;;4.68;;
58468;SDS011;44257;44.804;10.220;2023-02-01T01:03:05;11.68;;;5.47;;
58468;SDS011;44257;44.804;10.220;2023-02-01T01:05:47;14.80;;;5.93;;
58468;SDS011;44257;44.804;10.220;2023-02-01T01:08:14;12.10;;;4.28;;
58468;SDS011;44257;44.804;10.220;2023-02-01T01:10:41;14.32;;;5.30;;
58468;SDS011;44257;44.804;10.220;2023-02-01T01:13:07;12.60;;;4.88;;
58468;SDS011;44257;44.804;10.220;2023-02-01T01:15:37;9.57;;;4.40;;
58468;SDS011;44257;44.804;10.220;2023-02-01T01:18:04;9.07;;;5.03;;
58468;SDS011;44257;44.804;10.220;2023-02-01T01:20:30;9.02;;;4.50;;
58468;SDS011;44257;44.804;10.220;2023-02-01T01:22:58;8.90;;;4.47;;
58468;SDS011;44257;44.804;10.220;2023-02-01T01:25:24;9.90;;;5.03;;
58468;SDS011;44257;44.804;10.220;2023-02-01T01:27:50;12.20;;;4.65;;
58468;SDS011;44257;44.804;10.220;2023-02-01T01:30:16;14.90;;;5.22;;
58468;SDS011;44257;44.804;10.220;2023-02-01T01:32:42;13.55;;;5.68;;
58468;SDS011;44257;44.804;10.220;2023-02-01T01:35:09;9.85;;;5.65;;
58468;SDS011;44257;44.804;10.220;2023-02-01T01:37:36;8.20;;;4.63;;
58468;SDS011;44257;44.804;10.220;2023-02-01T01:40:03;11.63;;;4.63;;
58468;SDS011;44257;44.804;10.220;2023-02-01T01:42:29;12.55;;;5.53;;
58468;SDS011;44257;44.804;10.220;2023-02-01T01:47:21;12.88;;;4.65;;
58468;SDS011;44257;44.804;10.220;2023-02-01T01:49:47;10.35;;;4.57;;
58468;SDS011;44257;44.804;10.220;2023-02-01T01:52:13;8.70;;;4.18;;
58468;SDS011;44257;44.804;10.220;2023-02-01T01:54:43;10.73;;;4.70;;
58468;SDS011;44257;44.804;10.220;2023-02-01T01:57:34;14.75;;;6.05;;
58468;SDS011;44257;44.804;10.220;2023-02-01T02:02:38;6.95;;;4.28;;
58468;SDS011;44257;44.804;10.220;2023-02-01T02:05:06;11.70;;;4.00;;
58468;SDS011;44257;44.804;10.220;2023-02-01T02:07:35;10.52;;;4.00;;
58468;SDS011;44257;44.804;10.220;2023-02-01T02:10:05;7.90;;;4.40;;
58468;SDS011;44257;44.804;10.220;2023-02-01T02:12:37;6.85;;;3.20;;
58468;SDS011;44257;44.804;10.220;2023-02-01T02:15:06;12.23;;;4.07;;
58468;SDS011;44257;44.804;10.220;2023-02-01T02:17:40;6.72;;;3.35;;
58468;SDS011;44257;44.804;10.220;2023-02-01T02:32:47;7.15;;;2.25;;
58468;SDS011;44257;44.804;10.220;2023-02-01T02:37:40;7.00;;;2.97;;
58468;SDS011;44257;44.804;10.220;2023-02-01T02:40:54;9.38;;;3.05;;
58468;SDS011;44257;44.804;10.220;2023-02-01T02:43:21;8.70;;;2.55;;
58468;SDS011;44257;44.804;10.220;2023-02-01T02:49:25;6.05;;;2.65;;
58468;SDS011;44257;44.804;10.220;2023-02-01T02:52:06;4.68;;;2.65;;
58468;SDS011;44257;44.804;10.220;2023-02-01T02:54:57;8.27;;;2.25;;
58468;SDS011;44257;44.804;10.220;2023-02-01T03:00:30;5.78;;;2.65;;
58468;SDS011;44257;44.804;10.220;2023-02-01T03:03:17;6.43;;;2.72;;
58468;SDS011;44257;44.804;10.220;2023-02-01T03:06:02;3.80;;;2.45;;
58468;SDS011;44257;44.804;10.220;2023-02-01T03:08:29;5.72;;;2.78;;
58468;SDS011;44257;44.804;10.220;2023-02-01T03:21:59;6.38;;;3.42;;
58468;SDS011;44257;44.804;10.220;2023-02-01T03:32:14;6.28;;;2.67;;
58468;SDS011;44257;44.804;10.220;2023-02-01T03:34:41;4.07;;;2.03;;
58468;SDS011;44257;44.804;10.220;2023-02-01T03:37:11;5.63;;;2.08;;
58468;SDS011;44257;44.804;10.220;2023-02-01T03:44:45;3.95;;;2.35;;
58468;SDS011;44257;44.804;10.220;2023-02-01T03:47:20;3.88;;;1.98;;
58468;SDS011;44257;44.804;10.220;2023-02-01T03:49:54;4.93;;;2.53;;
58468;SDS011;44257;44.804;10.220;2023-02-01T03:52:32;6.90;;;3.42;;
58468;SDS011;44257;44.804;10.220;2023-02-01T03:55:09;5.97;;;2.97;;
58468;SDS011;44257;44.804;10.220;2023-02-01T03:57:39;4.43;;;2.03;;
58468;SDS011;44257;44.804;10.220;2023-02-01T04:00:14;4.05;;;1.90;;
58468;SDS011;44257;44.804;10.220;2023-02-01T04:02:43;3.17;;;2.42;;
58468;SDS011;44257;44.804;10.220;2023-02-01T04:05:09;2.33;;;1.58;;
58468;SDS011;44257;44.804;10.220;2023-02-01T04:07:37;4.55;;;2.42;;
58468;SDS011;44257;44.804;10.220;2023-02-01T04:10:03;4.90;;;2.15;;
58468;SDS011;44257;44.804;10.220;2023-02-01T04:12:29;3.67;;;1.90;;
58468;SDS011;44257;44.804;10.220;2023-02-01T04:14:55;5.03;;;2.35;;
58468;SDS011;44257;44.804;10.220;2023-02-01T04:17:21;3.47;;;2.17;;
58468;SDS011;44257;44.804;10.220;2023-02-01T04:19:47;5.20;;;1.98;;
58468;SDS011;44257;44.804;10.220;2023-02-01T04:22:13;3.75;;;1.63;;
58468;SDS011;44257;44.804;10.220;2023-02-01T04:24:38;4.88;;;1.95;;
58468;SDS011;44257;44.804;10.220;2023-02-01T04:27:04;4.50;;;2.15;;
58468;SDS011;44257;44.804;10.220;2023-02-01T04:29:30;3.55;;;1.85;;
58468;SDS011;44257;44.804;10.220;2023-02-01T04:31:56;19.45;;;3.38;;
58468;SDS011;44257;44.804;10.220;2023-02-01T04:34:21;2.25;;;1.42;;
58468;SDS011;44257;44.804;10.220;2023-02-01T04:36:50;5.07;;;1.95;;
58468;SDS011;44257;44.804;10.220;2023-02-01T04:39:16;6.75;;;2.60;;
58468;SDS011;44257;44.804;10.220;2023-02-01T04:41:42;3.95;;;2.22;;
58468;SDS011;44257;44.804;10.220;2023-02-01T04:44:15;4.85;;;2.40;;
58468;SDS011;44257;44.804;10.220;2023-02-01T04:46:42;4.55;;;1.48;;
58468;SDS011;44257;44.804;10.220;2023-02-01T04:49:09;6.80;;;2.65;;
58468;SDS011;44257;44.804;10.220;2023-02-01T04:51:36;5.40;;;2.25;;
58468;SDS011;44257;44.804;10.220;2023-02-01T04:54:02;6.20;;;2.90;;
58468;SDS011;44257;44.804;10.220;2023-02-01T04:56:28;3.88;;;2.22;;
58468;SDS011;44257;44.804;10.220;2023-02-01T04:58:55;3.28;;;2.00;;
58468;SDS011;44257;44.804;10.220;2023-02-01T05:01:21;3.63;;;2.10;;
58468;SDS011;44257;44.804;10.220;2023-02-01T05:03:47;6.93;;;2.45;;
58468;SDS011;44257;44.804;10.220;2023-02-01T05:06:13;5.60;;;1.95;;
58468;SDS011;44257;44.804;10.220;2023-02-01T05:08:39;4.88;;;1.92;;
58468;SDS011;44257;44.804;10.220;2023-02-01T05:11:05;2.83;;;1.95;;
58468;SDS011;44257;44.804;10.220;2023-02-01T05:13:31;5.63;;;2.15;;
58468;SDS011;44257;44.804;10.220;2023-02-01T05:16:15;6.13;;;1.98;;
58468;SDS011;44257;44.804;10.220;2023-02-01T05:18:41;4.13;;;1.60;;
58468;SDS011;44257;44.804;10.220;2023-02-01T05:21:07;5.15;;;2.17;;
58468;SDS011;44257;44.804;10.220;2023-02-01T05:23:33;6.70;;;2.47;;
58468;SDS011;44257;44.804;10.220;2023-02-01T05:26:19;5.85;;;1.90;;
58468;SDS011;44257;44.804;10.220;2023-02-01T05:28:45;2.67;;;1.52;;
58468;SDS011;44257;44.804;10.220;2023-02-01T05:31:10;6.70;;;2.85;;
58468;SDS011;44257;44.804;10.220;2023-02-01T05:33:36;5.97;;;2.53;;
58468;SDS011;44257;44.804;10.220;2023-02-01T05:36:02;2.50;;;2.10;;
58468;SDS011;44257;44.804;10.220;2023-02-01T05:38:28;7.50;;;2.60;;
58468;SDS011;44257;44.804;10.220;2023-02-01T05:40:55;5.13;;;2.33;;
58468;SDS011;44257;44.804;10.220;2023-02-01T05:43:21;9.45;;;2.65;;
58468;SDS011;44257;44.804;10.220;2023-02-01T05:45:47;7.65;;;3.08;;
58468;SDS011;44257;44.804;10.220;2023-02-01T05:48:13;9.27;;;2.80;;
58468;SDS011;44257;44.804;10.220;2023-02-01T05:50:39;10.15;;;2.85;;
58468;SDS011;44257;44.804;10.220;2023-02-01T05:53:07;7.65;;;2.83;;
58468;SDS011;44257;44.804;10.220;2023-02-01T05:55:33;6.97;;;2.78;;
58468;SDS011;44257;44.804;10.220;2023-02-01T05:57:59;5.95;;;2.47;;
58468;SDS011;44257;44.804;10.220;2023-02-01T06:00:25;4.90;;;3.20;;
58468;SDS011;44257;44.804;10.220;2023-02-01T06:02:51;5.20;;;2.05;;
58468;SDS011;44257;44.804;10.220;2023-02-01T06:05:16;7.38;;;3.05;;
58468;SDS011;44257;44.804;10.220;2023-02-01T06:07:42;7.20;;;2.03;;
58468;SDS011;44257;44.804;10.220;2023-02-01T06:10:08;5.53;;;2.22;;
58468;SDS011;44257;44.804;10.220;2023-02-01T06:12:35;2.30;;;1.60;;
58468;SDS011;44257;44.804;10.220;2023-02-01T06:15:00;4.95;;;2.20;;
58468;SDS011;44257;44.804;10.220;2023-02-01T06:17:26;5.80;;;2.40;;
58468;SDS011;44257;44.804;10.220;2023-02-01T06:19:52;5.32;;;2.65;;
58468;SDS011;44257;44.804;10.220;2023-02-01T06:22:18;5.13;;;2.40;;
58468;SDS011;44257;44.804;10.220;2023-02-01T06:24:44;7.53;;;1.98;;
58468;SDS011;44257;44.804;10.220;2023-02-01T06:27:10;6.20;;;2.63;;
58468;SDS011;44257;44.804;10.220;2023-02-01T06:29:36;16.65;;;2.38;;
58468;SDS011;44257;44.804;10.220;2023-02-01T06:32:01;4.97;;;2.17;;
58468;SDS011;44257;44.804;10.220;2023-02-01T06:34:28;4.70;;;2.22;;
58468;SDS011;44257;44.804;10.220;2023-02-01T06:36:53;3.50;;;1.83;;
58468;SDS011;44257;44.804;10.220;2023-02-01T06:39:20;2.53;;;1.70;;
58468;SDS011;44257;44.804;10.220;2023-02-01T06:41:49;4.60;;;2.67;;
58468;SDS011;44257;44.804;10.220;2023-02-01T06:44:16;4.70;;;2.60;;
58468;SDS011;44257;44.804;10.220;2023-02-01T06:46:42;5.53;;;2.25;;
58468;SDS011;44257;44.804;10.220;2023-02-01T06:49:08;3.20;;;2.08;;
58468;SDS011;44257;44.804;10.220;2023-02-01T06:54:36;4.55;;;2.20;;
58468;SDS011;44257;44.804;10.220;2023-02-01T06:57:02;5.00;;;3.17;;
58468;SDS011;44257;44.804;10.220;2023-02-01T06:59:29;7.30;;;2.92;;
58468;SDS011;44257;44.804;10.220;2023-02-01T07:01:55;7.22;;;2.33;;
58468;SDS011;44257;44.804;10.220;2023-02-01T07:04:21;7.10;;;2.70;;
58468;SDS011;44257;44.804;10.220;2023-02-01T07:06:47;8.93;;;3.00;;
58468;SDS011;44257;44.804;10.220;2023-02-01T07:09:13;6.78;;;3.40;;
58468;SDS011;44257;44.804;10.220;2023-02-01T07:11:39;10.57;;;3.38;;
58468;SDS011;44257;44.804;10.220;2023-02-01T07:14:08;6.28;;;3.63;;
58468;SDS011;44257;44.804;10.220;2023-02-01T07:16:38;7.00;;;3.45;;
58468;SDS011;44257;44.804;10.220;2023-02-01T07:19:04;8.20;;;3.58;;
58468;SDS011;44257;44.804;10.220;2023-02-01T07:21:30;6.60;;;4.38;;
58468;SDS011;44257;44.804;10.220;2023-02-01T07:23:56;8.40;;;4.05;;
58468;SDS011;44257;44.804;10.220;2023-02-01T07:26:24;11.75;;;3.70;;
58468;SDS011;44257;44.804;10.220;2023-02-01T07:28:50;9.75;;;4.97;;
58468;SDS011;44257;44.804;10.220;2023-02-01T07:31:17;8.95;;;4.53;;
58468;SDS011;44257;44.804;10.220;2023-02-01T07:33:46;8.63;;;3.53;;
58468;SDS011;44257;44.804;10.220;2023-02-01T07:36:14;10.18;;;3.45;;
58468;SDS011;44257;44.804;10.220;2023-02-01T07:38:41;10.98;;;5.25;;
58468;SDS011;44257;44.804;10.220;2023-02-01T07:41:08;7.38;;;3.85;;
58468;SDS011;44257;44.804;10.220;2023-02-01T07:43:34;10.50;;;4.22;;
58468;SDS011;44257;44.804;10.220;2023-02-01T07:46:01;12.15;;;6.00;;
58468;SDS011;44257;44.804;10.220;2023-02-01T07:48:29;13.07;;;6.60;;
58468;SDS011;44257;44.804;10.220;2023-02-01T07:51:00;17.95;;;5.95;;
58468;SDS011;44257;44.804;10.220;2023-02-01T07:53:27;6.50;;;3.45;;
58468;SDS011;44257;44.804;10.220;2023-02-01T07:55:55;13.80;;;4.95;;
58468;SDS011;44257;44.804;10.220;2023-02-01T07:58:21;9.45;;;4.32;;
58468;SDS011;44257;44.804;10.220;2023-02-01T08:00:47;6.28;;;3.67;;
58468;SDS011;44257;44.804;10.220;2023-02-01T08:03:31;11.77;;;4.10;;
58468;SDS011;44257;44.804;10.220;2023-02-01T08:05:58;9.40;;;4.57;;
58468;SDS011;44257;44.804;10.220;2023-02-01T08:08:24;9.27;;;4.57;;
58468;SDS011;44257;44.804;10.220;2023-02-01T09:44:12;25.70;;;13.02;;
58468;SDS011;44257;44.804;10.220;2023-02-01T09:46:49;24.50;;;13.35;;
58468;SDS011;44257;44.804;10.220;2023-02-01T09:49:32;25.88;;;11.52;;
58468;SDS011;44257;44.804;10.220;2023-02-01T09:52:02;26.50;;;13.55;;
58468;SDS011;44257;44.804;10.220;2023-02-01T09:57:07;29.90;;;15.23;;
58468;SDS011;44257;44.804;10.220;2023-02-01T10:02:23;25.33;;;12.65;;
58468;SDS011;44257;44.804;10.220;2023-02-01T10:04:52;22.80;;;12.20;;
58468;SDS011;44257;44.804;10.220;2023-02-01T10:10:13;20.80;;;10.25;;
58468;SDS011;44257;44.804;10.220;2023-02-01T10:21:02;28.02;;;11.65;;
58468;SDS011;44257;44.804;10.220;2023-02-01T10:26:42;25.10;;;12.90;;
58468;SDS011;44257;44.804;10.220;2023-02-01T10:29:17;23.70;;;13.85;;
58468;SDS011;44257;44.804;10.220;2023-02-01T10:31:45;22.60;;;12.30;;
58468;SDS011;44257;44.804;10.220;2023-02-01T10:36:52;20.00;;;10.60;;
58468;SDS011;44257;44.804;10.220;2023-02-01T10:39:19;19.30;;;11.05;;
58468;SDS011;44257;44.804;10.220;2023-02-01T10:41:45;25.33;;;12.15;;
58468;SDS011;44257;44.804;10.220;2023-02-01T10:44:12;25.35;;;11.43;;
58468;SDS011;44257;44.804;10.220;2023-02-01T10:46:41;28.00;;;11.48;;
58468;SDS011;44257;44.804;10.220;2023-02-01T10:49:11;21.50;;;12.20;;
58468;SDS011;44257;44.804;10.220;2023-02-01T10:51:42;24.63;;;11.20;;
58468;SDS011;44257;44.804;10.220;2023-02-01T10:54:18;19.75;;;11.38;;
58468;SDS011;44257;44.804;10.220;2023-02-01T10:56:46;23.25;;;12.57;;
58468;SDS011;44257;44.804;10.220;2023-02-01T10:59:17;23.73;;;12.32;;
58468;SDS011;44257;44.804;10.220;2023-02-01T11:01:46;20.58;;;11.75;;
58468;SDS011;44257;44.804;10.220;2023-02-01T11:04:16;22.75;;;11.77;;
58468;SDS011;44257;44.804;10.220;2023-02-01T11:06:45;24.77;;;11.90;;
58468;SDS011;44257;44.804;10.220;2023-02-01T11:09:24;22.23;;;11.45;;
58468;SDS011;44257;44.804;10.220;2023-02-01T11:14:17;19.38;;;10.18;;
58468;SDS011;44257;44.804;10.220;2023-02-01T11:16:50;19.95;;;9.50;;
58468;SDS011;44257;44.804;10.220;2023-02-01T11:19:19;24.58;;;11.38;;
58468;SDS011;44257;44.804;10.220;2023-02-01T11:21:49;21.00;;;10.52;;
58468;SDS011;44257;44.804;10.220;2023-02-01T11:27:05;25.90;;;11.82;;
58468;SDS011;44257;44.804;10.220;2023-02-01T11:29:39;16.98;;;9.07;;
58468;SDS011;44257;44.804;10.220;2023-02-01T11:34:47;19.45;;;10.00;;
58468;SDS011;44257;44.804;10.220;2023-02-01T11:37:21;22.70;;;10.05;;
58468;SDS011;44257;44.804;10.220;2023-02-01T11:39:53;20.48;;;10.23;;
58468;SDS011;44257;44.804;10.220;2023-02-01T11:42:19;19.92;;;9.55;;
58468;SDS011;44257;44.804;10.220;2023-02-01T11:44:46;16.08;;;9.45;;
58468;SDS011;44257;44.804;10.220;2023-02-01T11:47:26;19.70;;;11.20;;
58468;SDS011;44257;44.804;10.220;2023-02-01T11:49:54;17.05;;;9.63;;
58468;SDS011;44257;44.804;10.220;2023-02-01T12:05:37;17.10;;;9.57;;
58468;SDS011;44257;44.804;10.220;2023-02-01T12:10:43;20.05;;;8.32;;
58468;SDS011;44257;44.804;10.220;2023-02-01T12:21:59;20.13;;;9.02;;
58468;SDS011;44257;44.804;10.220;2023-02-01T12:25:01;15.07;;;8.75;;
58468;SDS011;44257;44.804;10.220;2023-02-01T12:27:51;20.02;;;9.48;;
58468;SDS011;44257;44.804;10.220;2023-02-01T12:41:50;15.52;;;8.77;;
58468;SDS011;44257;44.804;10.220;2023-02-01T12:46:54;16.65;;;8.63;;
58468;SDS011;44257;44.804;10.220;2023-02-01T13:00:30;13.43;;;6.75;;
58468;SDS011;44257;44.804;10.220;2023-02-01T13:05:57;14.60;;;7.40;;
58468;SDS011;44257;44.804;10.220;2023-02-01T13:08:33;15.15;;;7.47;;
58468;SDS011;44257;44.804;10.220;2023-02-01T13:11:17;13.05;;;6.30;;
58468;SDS011;44257;44.804;10.220;2023-02-01T13:16:43;12.30;;;6.25;;
58468;SDS011;44257;44.804;10.220;2023-02-01T13:21:39;11.95;;;7.00;;
58468;SDS011;44257;44.804;10.220;2023-02-01T13:24:53;12.03;;;7.87;;
58468;SDS011;44257;44.804;10.220;2023-02-01T13:27:04;18.40;;;8.27;;
58468;SDS011;44257;44.804;10.220;2023-02-01T13:29:30;12.38;;;7.10;;
58468;SDS011;44257;44.804;10.220;2023-02-01T13:47:48;15.15;;;7.55;;
58468;SDS011;44257;44.804;10.220;2023-02-01T13:50:30;13.27;;;7.30;;
58468;SDS011;44257;44.804;10.220;2023-02-01T13:53:03;15.32;;;7.03;;
58468;SDS011;44257;44.804;10.220;2023-02-01T13:55:41;18.67;;;6.57;;
58468;SDS011;44257;44.804;10.220;2023-02-01T13:58:13;13.52;;;7.30;;
58468;SDS011;44257;44.804;10.220;2023-02-01T14:00:40;14.68;;;7.47;;
58468;SDS011;44257;44.804;10.220;2023-02-01T14:26:51;12.70;;;7.28;;
58468;SDS011;44257;44.804;10.220;2023-02-01T14:29:32;12.48;;;7.50;;
58468;SDS011;44257;44.804;10.220;2023-02-01T14:32:29;15.45;;;7.43;;
58468;SDS011;44257;44.804;10.220;2023-02-01T14:34:59;19.05;;;8.52;;
58468;SDS011;44257;44.804;10.220;2023-02-01T14:37:31;19.35;;;8.10;;
58468;SDS011;44257;44.804;10.220;2023-02-01T14:42:52;15.65;;;8.15;;
58468;SDS011;44257;44.804;10.220;2023-02-01T14:55:46;17.92;;;9.60;;
58468;SDS011;44257;44.804;10.220;2023-02-01T15:01:18;14.65;;;7.65;;
58468;SDS011;44257;44.804;10.220;2023-02-01T15:09:02;17.33;;;7.85;;
58468;SDS011;44257;44.804;10.220;2023-02-01T15:11:57;15.98;;;7.88;;
58468;SDS011;44257;44.804;10.220;2023-02-01T15:14:23;16.10;;;8.68;;
58468;SDS011;44257;44.804;10.220;2023-02-01T15:16:49;18.45;;;8.63;;
58468;SDS011;44257;44.804;10.220;2023-02-01T15:19:19;18.13;;;9.27;;
58468;SDS011;44257;44.804;10.220;2023-02-01T15:21:48;13.35;;;7.78;;
58468;SDS011;44257;44.804;10.220;2023-02-01T15:26:50;24.67;;;10.35;;
58468;SDS011;44257;44.804;10.220;2023-02-01T15:29:17;13.30;;;7.93;;
58468;SDS011;44257;44.804;10.220;2023-02-01T15:31:45;16.60;;;8.93;;
58468;SDS011;44257;44.804;10.220;2023-02-01T15:34:13;16.45;;;9.02;;
58468;SDS011;44257;44.804;10.220;2023-02-01T15:36:39;14.13;;;8.10;;
58468;SDS011;44257;44.804;10.220;2023-02-01T15:41:58;28.27;;;12.43;;
58468;SDS011;44257;44.804;10.220;2023-02-01T15:47:07;18.83;;;9.52;;
58468;SDS011;44257;44.804;10.220;2023-02-01T15:49:46;21.33;;;12.35;;
58468;SDS011;44257;44.804;10.220;2023-02-01T15:57:22;19.85;;;9.98;;
58468;SDS011;44257;44.804;10.220;2023-02-01T16:02:52;16.58;;;8.13;;
58468;SDS011;44257;44.804;10.220;2023-02-01T16:05:33;20.38;;;8.52;;
58468;SDS011;44257;44.804;10.220;2023-02-01T16:08:05;14.80;;;7.70;;
58468;SDS011;44257;44.804;10.220;2023-02-01T16:10:43;14.90;;;7.53;;
58468;SDS011;44257;44.804;10.220;2023-02-01T16:13:11;16.23;;;9.27;;
58468;SDS011;44257;44.804;10.220;2023-02-01T16:15:38;17.75;;;8.43;;
58468;SDS011;44257;44.804;10.220;2023-02-01T16:18:04;20.85;;;9.95;;
58468;SDS011;44257;44.804;10.220;2023-02-01T16:20:32;20.45;;;10.45;;
58468;SDS011;44257;44.804;10.220;2023-02-01T16:22:58;21.77;;;11.45;;
58468;SDS011;44257;44.804;10.220;2023-02-01T16:25:24;16.45;;;8.45;;
58468;SDS011;44257;44.804;10.220;2023-02-01T16:27:49;14.30;;;7.55;;
58468;SDS011;44257;44.804;10.220;2023-02-01T16:30:15;21.23;;;9.52;;
58468;SDS011;44257;44.804;10.220;2023-02-01T16:35:31;17.88;;;9.73;;
58468;SDS011;44257;44.804;10.220;2023-02-01T16:38:13;18.40;;;8.82;;
58468;SDS011;44257;44.804;10.220;2023-02-01T16:40:43;19.60;;;9.55;;
58468;SDS011;44257;44.804;10.220;2023-02-01T16:43:14;24.55;;;9.55;;
58468;SDS011;44257;44.804;10.220;2023-02-01T16:45:41;15.65;;;8.10;;
58468;SDS011;44257;44.804;10.220;2023-02-01T16:48:15;16.67;;;7.22;;
58468;SDS011;44257;44.804;10.220;2023-02-01T16:50:52;19.75;;;8.68;;
58468;SDS011;44257;44.804;10.220;2023-02-01T16:53:20;20.92;;;7.97;;
58468;SDS011;44257;44.804;10.220;2023-02-01T16:55:47;15.55;;;8.15;;
58468;SDS011;44257;44.804;10.220;2023-02-01T16:58:15;17.42;;;9.25;;
58468;SDS011;44257;44.804;10.220;2023-02-01T17:00:42;17.02;;;8.15;;
58468;SDS011;44257;44.804;10.220;2023-02-01T17:07:12;17.15;;;9.23;;
58468;SDS011;44257;44.804;10.220;2023-02-01T17:09:40;18.15;;;8.27;;
58468;SDS011;44257;44.804;10.220;2023-02-01T17:12:09;16.58;;;8.52;;
58468;SDS011;44257;44.804;10.220;2023-02-01T17:15:01;14.70;;;8.38;;
58468;SDS011;44257;44.804;10.220;2023-02-01T17:17:33;15.95;;;7.38;;
58468;SDS011;44257;44.804;10.220;2023-02-01T17:20:02;16.67;;;7.55;;
58468;SDS011;44257;44.804;10.220;2023-02-01T17:22:28;16.88;;;8.75;;
58468;SDS011;44257;44.804;10.220;2023-02-01T17:24:54;18.55;;;9.73;;
58468;SDS011;44257;44.804;10.220;2023-02-01T17:27:20;19.55;;;9.65;;
58468;SDS011;44257;44.804;10.220;2023-02-01T17:29:46;23.70;;;9.60;;
58468;SDS011;44257;44.804;10.220;2023-02-01T17:32:17;22.45;;;11.57;;
58468;SDS011;44257;44.804;10.220;2023-02-01T17:34:45;15.65;;;7.57;;
58468;SDS011;44257;44.804;10.220;2023-02-01T17:39:50;21.70;;;8.88;;
58468;SDS011;44257;44.804;10.220;2023-02-01T17:42:18;13.13;;;8.50;;
58468;SDS011;44257;44.804;10.220;2023-02-01T17:44:44;16.25;;;9.20;;
58468;SDS011;44257;44.804;10.220;2023-02-01T17:47:10;20.45;;;8.63;;
58468;SDS011;44257;44.804;10.220;2023-02-01T17:49:36;18.33;;;8.93;;
58468;SDS011;44257;44.804;10.220;2023-02-01T17:52:03;17.70;;;8.40;;
58468;SDS011;44257;44.804;10.220;2023-02-01T17:58:11;25.15;;;8.88;;
58468;SDS011;44257;44.804;10.220;2023-02-01T18:00:39;19.55;;;9.95;;
58468;SDS011;44257;44.804;10.220;2023-02-01T18:03:05;22.42;;;9.98;;
58468;SDS011;44257;44.804;10.220;2023-02-01T18:05:40;24.60;;;11.15;;
58468;SDS011;44257;44.804;10.220;2023-02-01T18:08:08;27.35;;;12.68;;
58468;SDS011;44257;44.804;10.220;2023-02-01T18:10:34;26.90;;;12.38;;
58468;SDS011;44257;44.804;10.220;2023-02-01T18:13:01;26.45;;;13.23;;
58468;SDS011;44257;44.804;10.220;2023-02-01T18:15:28;28.55;;;13.32;;
58468;SDS011;44257;44.804;10.220;2023-02-01T18:17:55;24.35;;;13.05;;
58468;SDS011;44257;44.804;10.220;2023-02-01T18:20:22;34.28;;;14.35;;
58468;SDS011;44257;44.804;10.220;2023-02-01T18:22:49;26.63;;;12.50;;
58468;SDS011;44257;44.804;10.220;2023-02-01T18:25:22;26.80;;;13.70;;
58468;SDS011;44257;44.804;10.220;2023-02-01T18:27:50;24.73;;;12.40;;
58468;SDS011;44257;44.804;10.220;2023-02-01T18:30:18;28.27;;;13.05;;
58468;SDS011;44257;44.804;10.220;2023-02-01T18:32:45;26.17;;;14.35;;
58468;SDS011;44257;44.804;10.220;2023-02-01T18:35:20;30.58;;;13.30;;
58468;SDS011;44257;44.804;10.220;2023-02-01T18:37:50;26.42;;;14.60;;
58468;SDS011;44257;44.804;10.220;2023-02-01T18:40:18;24.92;;;13.10;;
58468;SDS011;44257;44.804;10.220;2023-02-01T18:42:46;26.85;;;13.43;;
58468;SDS011;44257;44.804;10.220;2023-02-01T18:48:02;22.63;;;11.43;;
58468;SDS011;44257;44.804;10.220;2023-02-01T18:50:29;27.83;;;11.95;;
58468;SDS011;44257;44.804;10.220;2023-02-01T18:52:58;20.45;;;10.45;;
58468;SDS011;44257;44.804;10.220;2023-02-01T18:55:26;23.50;;;11.20;;
58468;SDS011;44257;44.804;10.220;2023-02-01T18:57:52;20.92;;;11.77;;
58468;SDS011;44257;44.804;10.220;2023-02-01T19:00:19;26.60;;;11.55;;
58468;SDS011;44257;44.804;10.220;2023-02-01T19:02:46;19.50;;;9.95;;
58468;SDS011;44257;44.804;10.220;2023-02-01T19:05:13;21.67;;;10.70;;
58468;SDS011;44257;44.804;10.220;2023-02-01T19:07:39;20.77;;;10.65;;
58468;SDS011;44257;44.804;10.220;2023-02-01T19:10:07;23.65;;;12.40;;
58468;SDS011;44257;44.804;10.220;2023-02-01T19:12:35;22.48;;;11.32;;
58468;SDS011;44257;44.804;10.220;2023-02-01T19:15:03;19.98;;;10.40;;
58468;SDS011;44257;44.804;10.220;2023-02-01T19:17:31;18.33;;;9.07;;
58468;SDS011;44257;44.804;10.220;2023-02-01T19:19:57;19.02;;;10.05;;
58468;SDS011;44257;44.804;10.220;2023-02-01T19:22:23;22.77;;;10.65;;
58468;SDS011;44257;44.804;10.220;2023-02-01T19:24:50;24.60;;;10.45;;
58468;SDS011;44257;44.804;10.220;2023-02-01T19:27:17;21.50;;;10.80;;
58468;SDS011;44257;44.804;10.220;2023-02-01T19:29:43;23.23;;;11.13;;
58468;SDS011;44257;44.804;10.220;2023-02-01T19:32:11;24.30;;;10.57;;
58468;SDS011;44257;44.804;10.220;2023-02-01T19:34:38;20.45;;;9.60;;
58468;SDS011;44257;44.804;10.220;2023-02-01T19:37:07;18.70;;;9.32;;
58468;SDS011;44257;44.804;10.220;2023-02-01T19:39:33;14.18;;;6.93;;
58468;SDS011;44257;44.804;10.220;2023-02-01T19:42:02;8.95;;;5.43;;
58468;SDS011;44257;44.804;10.220;2023-02-01T19:44:28;13.98;;;7.05;;
58468;SDS011;44257;44.804;10.220;2023-02-01T19:46:54;11.40;;;6.20;;
58468;SDS011;44257;44.804;10.220;2023-02-01T19:49:20;18.80;;;7.97;;
58468;SDS011;44257;44.804;10.220;2023-02-01T19:51:46;15.85;;;6.05;;
58468;SDS011;44257;44.804;10.220;2023-02-01T19:54:13;10.38;;;4.70;;
58468;SDS011;44257;44.804;10.220;2023-02-01T19:56:39;7.38;;;3.28;;
58468;SDS011;44257;44.804;10.220;2023-02-01T19:59:06;5.25;;;2.97;;
58468;SDS011;44257;44.804;10.220;2023-02-01T20:01:32;5.55;;;2.42;;
58468;SDS011;44257;44.804;10.220;2023-02-01T20:03:58;5.32;;;2.58;;